createdAt,value
2022-11-24T00:01:20.493Z,100135.72
2022-11-24T00:03:56.053Z,100144.38
2022-11-24T00:06:24.854Z,100148.97
2022-11-24T00:08:53.402Z,100140.28
2022-11-24T00:11:23.249Z,100137.84
2022-11-24T00:13:51.402Z,100144.91
2022-11-24T00:16:21.705Z,100145.78
2022-11-24T00:18:51.352Z,100152.69
2022-11-24T00:21:21.928Z,100156.22
2022-11-24T00:23:50.602Z,100151.91
2022-11-24T00:26:20.289Z,100152.94
2022-11-24T00:28:49.882Z,100149.22
2022-11-24T00:31:21.959Z,100144.91
2022-11-24T00:33:51.956Z,100146.50
2022-11-24T00:36:22.841Z,100145.78
2022-11-24T00:38:55.445Z,100151.91
2022-11-24T00:41:24.858Z,100156.88
2022-11-24T00:43:53.166Z,100153.91
2022-11-24T00:46:22.216Z,100163.69
2022-11-24T00:48:50.457Z,100151.38
2022-11-24T00:51:20.049Z,100160.91
2022-11-24T00:53:49.929Z,100160.25
2022-11-24T00:56:17.926Z,100163.44
2022-11-24T00:58:46.146Z,100160.16
2022-11-24T01:01:16.558Z,100155.94
2022-11-24T01:03:46.790Z,100159.41
2022-11-24T01:06:16.900Z,100162.19
2022-11-24T01:08:45.692Z,100163.78
2022-11-24T01:11:17.704Z,100161.06
2022-11-24T01:13:47.883Z,100166.28
2022-11-24T01:16:17.723Z,100173.41
2022-11-24T01:18:46.111Z,100168.91
2022-11-24T01:21:14.529Z,100169.00
2022-11-24T01:23:42.992Z,100176.00
2022-11-24T01:26:13.150Z,100175.09
2022-11-24T01:28:47.112Z,100186.44
2022-11-24T01:31:17.027Z,100180.47
2022-11-24T01:33:45.181Z,100184.84
2022-11-24T01:36:13.453Z,100183.84
2022-11-24T01:38:41.586Z,100185.53
2022-11-24T01:41:13.075Z,100192.50
2022-11-24T01:43:43.087Z,100195.41
2022-11-24T01:46:18.888Z,100203.03
2022-11-24T01:48:50.750Z,100202.38
2022-11-24T01:51:24.012Z,100192.78
2022-11-24T01:53:57.801Z,100194.47
2022-11-24T01:56:26.803Z,100203.13
2022-11-24T01:59:00.005Z,100197.00
2022-11-24T02:01:29.333Z,100197.00
2022-11-24T02:03:58.296Z,100196.13
2022-11-24T02:06:30.364Z,100204.06
2022-11-24T02:09:01.866Z,100210.16
2022-11-24T02:11:34.627Z,100206.66
2022-11-24T02:14:05.073Z,100207.59
2022-11-24T02:16:35.295Z,100210.16
2022-11-24T02:19:04.655Z,100214.41
2022-11-24T02:21:33.015Z,100209.03
2022-11-24T02:24:08.573Z,100215.19
2022-11-24T02:26:42.956Z,100213.41
2022-11-24T02:29:11.762Z,100227.22
2022-11-24T02:31:42.705Z,100223.84
2022-11-24T02:34:10.796Z,100227.13
2022-11-24T02:36:38.894Z,100227.22
2022-11-24T02:39:10.855Z,100226.75
2022-11-24T02:41:43.453Z,100235.56
2022-11-24T02:44:14.739Z,100234.44
2022-11-24T02:46:43.115Z,100237.06
2022-11-24T02:49:11.193Z,100238.72
2022-11-24T02:51:39.261Z,100244.03
2022-11-24T02:54:07.445Z,100244.72
2022-11-24T02:56:35.454Z,100237.91
2022-11-24T02:59:04.828Z,100237.91
2022-11-24T03:01:32.990Z,100239.69
2022-11-24T03:04:01.251Z,100236.88
2022-11-24T03:06:29.299Z,100232.94
2022-11-24T03:08:57.397Z,100243.38
2022-11-24T03:11:25.708Z,100244.41
2022-11-24T03:13:53.903Z,100236.56
2022-11-24T03:16:26.030Z,100240.78
2022-11-24T03:18:54.468Z,100239.28
2022-11-24T03:21:22.526Z,100249.03
2022-11-24T03:23:50.581Z,100250.06
2022-11-24T03:26:20.713Z,100250.25
2022-11-24T03:28:48.786Z,100245.00
2022-11-24T03:31:17.347Z,100249.13
2022-11-24T03:33:46.786Z,100244.44
2022-11-24T03:36:15.070Z,100246.84
2022-11-24T03:38:43.213Z,100253.03
2022-11-24T03:41:11.238Z,100252.44
2022-11-24T03:43:43.463Z,100261.50
2022-11-24T03:46:12.307Z,100257.16
2022-11-24T03:48:40.797Z,100261.44
2022-11-24T03:51:11.802Z,100267.66
2022-11-24T03:53:39.973Z,100263.94
2022-11-24T03:56:08.626Z,100270.94
2022-11-24T03:58:36.638Z,100265.72
2022-11-24T04:01:04.798Z,100281.31
2022-11-24T04:03:32.930Z,100278.69
2022-11-24T04:06:01.088Z,100287.31
2022-11-24T04:08:30.531Z,100289.06
2022-11-24T04:10:59.167Z,100299.59
2022-11-24T04:13:26.793Z,100302.19
2022-11-24T04:15:55.663Z,100301.00
2022-11-24T04:18:24.319Z,100301.97
2022-11-24T04:20:52.898Z,100295.88
2022-11-24T04:23:21.165Z,100296.75
2022-11-24T04:25:50.535Z,100301.00
2022-11-24T04:28:18.641Z,100298.91
2022-11-24T04:30:46.672Z,100303.38
2022-11-24T04:33:15.514Z,100301.59
2022-11-24T04:35:43.737Z,100312.13
2022-11-24T04:38:11.925Z,100311.22
2022-11-24T04:40:39.973Z,100314.84
2022-11-24T04:43:10.495Z,100317.38
2022-11-24T04:45:38.528Z,100317.53
2022-11-24T04:48:07.038Z,100320.25
2022-11-24T04:50:35.008Z,100327.31
2022-11-24T04:53:03.058Z,100326.56
2022-11-24T04:55:31.279Z,100321.25
2022-11-24T04:57:59.299Z,100328.91
2022-11-24T05:00:28.965Z,100329.84
2022-11-24T05:02:57.194Z,100324.53
2022-11-24T05:05:25.222Z,100333.31
2022-11-24T05:07:53.321Z,100333.38
2022-11-24T05:10:36.564Z,100336.06
2022-11-24T05:13:06.358Z,100334.31
2022-11-24T05:15:36.183Z,100338.53
2022-11-24T05:18:06.607Z,100331.44
2022-11-24T05:20:34.943Z,100345.28
2022-11-24T05:23:04.225Z,100356.63
2022-11-24T05:25:32.972Z,100353.09
2022-11-24T05:28:02.458Z,100360.66
2022-11-24T05:30:31.607Z,100367.31
2022-11-24T05:33:06.772Z,100369.00
2022-11-24T05:35:36.451Z,100374.25
2022-11-24T05:38:05.810Z,100376.50
2022-11-24T05:40:33.871Z,100378.19
2022-11-24T05:43:01.877Z,100384.28
2022-11-24T05:45:30.041Z,100387.81
2022-11-24T05:48:07.564Z,100399.88
2022-11-24T05:50:36.525Z,100395.38
2022-11-24T05:53:05.364Z,100399.69
2022-11-24T05:55:34.009Z,100408.28
2022-11-24T05:58:02.739Z,100409.97
2022-11-24T06:00:32.096Z,100418.56
2022-11-24T06:03:00.745Z,100418.47
2022-11-24T06:05:30.952Z,100426.41
2022-11-24T06:08:00.715Z,100434.16
2022-11-24T06:10:29.655Z,100442.84
2022-11-24T06:12:58.230Z,100445.44
2022-11-24T06:15:26.319Z,100449.75
2022-11-24T06:17:56.117Z,100450.75
2022-11-24T06:20:29.787Z,100461.91
2022-11-24T06:23:02.513Z,100464.59
2022-11-24T06:25:30.790Z,100471.66
2022-11-24T06:27:58.881Z,100471.59
2022-11-24T06:30:26.928Z,100476.66
2022-11-24T06:32:56.421Z,100480.94
2022-11-24T06:35:24.488Z,100483.72
2022-11-24T06:37:52.532Z,100484.41
2022-11-24T06:40:22.017Z,100488.69
2022-11-24T06:42:53.274Z,100492.16
2022-11-24T06:45:21.324Z,100505.25
2022-11-24T06:47:49.342Z,100507.75
2022-11-24T06:50:17.734Z,100511.31
2022-11-24T06:52:45.777Z,100519.06
2022-11-24T06:55:13.913Z,100517.38
2022-11-24T06:57:43.376Z,100523.53
2022-11-24T07:00:12.274Z,100530.50
2022-11-24T07:02:45.732Z,100535.69
2022-11-24T07:05:14.593Z,100548.75
2022-11-24T07:07:42.676Z,100546.88
2022-11-24T07:10:11.029Z,100544.63
2022-11-24T07:12:39.110Z,100554.13
2022-11-24T07:15:09.884Z,100560.22
2022-11-24T07:17:41.042Z,100558.59
2022-11-24T07:20:10.444Z,100566.44
2022-11-24T07:22:38.558Z,100581.22
2022-11-24T07:25:09.810Z,100596.72
2022-11-24T07:27:38.090Z,100596.72
2022-11-24T07:30:11.056Z,100601.03
2022-11-24T07:32:39.033Z,100601.56
2022-11-24T07:35:10.415Z,100604.22
2022-11-24T07:37:38.535Z,100600.78
2022-11-24T07:40:08.072Z,100608.44
2022-11-24T07:42:36.094Z,100621.69
2022-11-24T07:45:04.228Z,100623.56
2022-11-24T07:47:33.917Z,100625.81
2022-11-24T07:50:01.996Z,100624.03
2022-11-24T07:52:30.009Z,100628.19
2022-11-24T07:54:58.091Z,100629.06
2022-11-24T07:57:26.108Z,100629.13
2022-11-24T07:59:54.199Z,100637.63
2022-11-24T08:02:22.260Z,100637.91
2022-11-24T08:04:51.575Z,100651.81
2022-11-24T08:07:19.889Z,100648.00
2022-11-24T08:09:48.381Z,100654.94
2022-11-24T08:12:17.543Z,100653.84
2022-11-24T08:14:45.548Z,100659.94
2022-11-24T08:17:13.610Z,100668.63
2022-11-24T08:19:41.675Z,100665.91
2022-11-24T08:22:11.453Z,100671.84
2022-11-24T08:24:46.036Z,100677.91
2022-11-24T08:27:14.412Z,100674.38
2022-11-24T08:29:42.430Z,100678.78
2022-11-24T08:32:11.255Z,100687.44
2022-11-24T08:34:39.710Z,100682.03
2022-11-24T08:37:08.027Z,100687.09
2022-11-24T08:39:37.498Z,100694.91
2022-11-24T08:42:05.786Z,100699.63
2022-11-24T08:44:34.267Z,100695.69
2022-11-24T08:47:02.493Z,100713.72
2022-11-24T08:49:30.582Z,100703.34
2022-11-24T08:51:58.946Z,100710.03
2022-11-24T08:54:27.602Z,100710.81
2022-11-24T08:56:57.229Z,100721.19
2022-11-24T08:59:25.385Z,100713.16
2022-11-24T09:01:53.706Z,100716.38
2022-11-24T09:04:22.021Z,100723.22
2022-11-24T09:06:50.051Z,100729.09
2022-11-24T09:09:18.257Z,100736.72
2022-11-24T09:11:46.364Z,100736.56
2022-11-24T09:14:15.775Z,100736.22
2022-11-24T09:16:43.906Z,100736.56
2022-11-24T09:19:12.181Z,100738.41
2022-11-24T09:21:40.314Z,100745.59
2022-11-24T09:24:08.792Z,100744.50
2022-11-24T09:26:43.085Z,100748.97
2022-11-24T09:29:15.698Z,100751.66
2022-11-24T09:31:43.832Z,100762.97
2022-11-24T09:34:15.497Z,100759.63
2022-11-24T09:36:43.624Z,100758.59
2022-11-24T09:39:11.877Z,100765.53
2022-11-24T09:41:47.213Z,100777.59
2022-11-24T09:44:46.042Z,100778.53
2022-11-24T09:47:21.876Z,100784.03
2022-11-24T09:49:55.537Z,100793.22
2022-11-24T09:52:46.132Z,100783.59
2022-11-24T09:55:26.479Z,100793.88
2022-11-24T09:58:04.290Z,100792.19
2022-11-24T10:00:35.030Z,100801.97
2022-11-24T10:03:03.175Z,100808.41
2022-11-24T10:05:35.702Z,100800.41
2022-11-24T10:08:20.716Z,100803.00
2022-11-24T10:10:56.197Z,100809.69
2022-11-24T10:13:41.183Z,100807.97
2022-11-24T10:16:22.410Z,100830.47
2022-11-24T10:19:02.653Z,100826.81
2022-11-24T10:21:43.497Z,100828.25
2022-11-24T10:24:40.319Z,100827.31
2022-11-24T10:27:17.545Z,100832.38
2022-11-24T10:29:49.960Z,100833.31
2022-11-24T10:32:22.957Z,100852.16
2022-11-24T10:34:51.712Z,100847.50
2022-11-24T10:37:25.171Z,100845.88
2022-11-24T10:40:02.167Z,100843.00
2022-11-24T10:42:31.689Z,100847.31
2022-11-24T10:45:01.292Z,100855.94
2022-11-24T10:47:31.847Z,100861.09
2022-11-24T10:50:03.594Z,100864.56
2022-11-24T10:52:37.867Z,100868.78
2022-11-24T10:55:07.203Z,100864.31
2022-11-24T10:57:36.868Z,100859.59
2022-11-24T11:00:28.689Z,100861.50
2022-11-24T11:03:16.417Z,100866.38
2022-11-24T11:05:48.933Z,100873.41
2022-11-24T11:08:25.275Z,100862.72
2022-11-24T11:11:14.200Z,100872.88
2022-11-24T11:14:01.582Z,100867.63
2022-11-24T11:16:40.914Z,100875.59
2022-11-24T11:19:48.877Z,100879.97
2022-11-24T11:22:25.421Z,100889.53
2022-11-24T11:25:05.826Z,100876.97
2022-11-24T11:27:34.028Z,100892.16
2022-11-24T11:36:12.112Z,100892.44
2022-11-24T11:38:41.523Z,100890.66
2022-11-24T11:41:18.320Z,100899.28
2022-11-24T11:43:48.806Z,100893.38
2022-11-24T11:46:17.183Z,100893.28
2022-11-24T11:48:47.508Z,100893.19
2022-11-24T11:51:37.421Z,100899.00
2022-11-24T11:54:14.368Z,100895.47
2022-11-24T11:56:49.051Z,100887.31
2022-11-24T11:59:37.601Z,100891.91
2022-11-24T12:02:33.378Z,100896.03
2022-11-24T12:05:03.979Z,100889.94
2022-11-24T12:07:49.662Z,100888.16
2022-11-24T12:10:27.723Z,100889.94
2022-11-24T12:13:33.820Z,100889.09
2022-11-24T12:16:12.701Z,100883.09
2022-11-24T12:18:57.516Z,100889.19
2022-11-24T12:21:34.060Z,100896.97
2022-11-24T12:24:17.155Z,100893.31
2022-11-24T12:26:49.362Z,100891.34
2022-11-24T12:29:35.320Z,100896.44
2022-11-24T12:32:12.362Z,100896.50
2022-11-24T12:34:52.017Z,100897.06
2022-11-24T12:37:38.223Z,100893.81
2022-11-24T12:40:16.072Z,100894.44
2022-11-24T12:42:51.595Z,100899.53
2022-11-24T12:45:29.661Z,100892.50
2022-11-24T12:48:19.864Z,100902.31
2022-11-24T12:50:53.324Z,100891.56
2022-11-24T12:53:24.842Z,100895.59
2022-11-24T12:55:55.792Z,100896.34
2022-11-24T12:58:33.908Z,100896.63
2022-11-24T13:01:16.727Z,100894.19
2022-11-24T13:04:01.345Z,100902.84
2022-11-24T13:06:36.785Z,100906.59
2022-11-24T13:09:10.411Z,100907.63
2022-11-24T13:11:45.489Z,100910.97
2022-11-24T13:14:17.294Z,100914.28
2022-11-24T13:19:44.738Z,100917.72
2022-11-24T13:22:19.376Z,100922.97
2022-11-24T13:25:13.394Z,100918.50
2022-11-24T13:27:46.146Z,100921.22
2022-11-24T13:30:32.764Z,100915.41
2022-11-24T13:33:02.632Z,100917.94
2022-11-24T13:35:31.395Z,100918.59
2022-11-24T13:38:01.852Z,100918.75
2022-11-24T13:40:54.217Z,100913.59
2022-11-24T13:43:31.956Z,100914.63
2022-11-24T13:46:00.149Z,100919.63
2022-11-24T13:49:02.205Z,100917.09
2022-11-24T13:51:30.309Z,100911.06
2022-11-24T13:54:01.057Z,100915.75
2022-11-24T13:56:32.372Z,100916.72
2022-11-24T13:59:16.516Z,100912.19
2022-11-24T14:01:46.937Z,100905.44
2022-11-24T14:04:36.245Z,100913.31
2022-11-24T14:07:08.781Z,100912.47
2022-11-24T14:09:44.332Z,100910.97
2022-11-24T14:12:17.032Z,100907.47
2022-11-24T14:14:48.264Z,100905.03
2022-11-24T14:17:19.583Z,100903.09
2022-11-24T14:19:49.527Z,100903.91
2022-11-24T14:22:20.833Z,100902.22
2022-11-24T14:24:54.635Z,100906.69
2022-11-24T14:27:30.669Z,100902.41
2022-11-24T14:30:03.406Z,100905.19
2022-11-24T14:32:31.299Z,100905.28
2022-11-24T14:34:59.410Z,100902.56
2022-11-24T14:37:27.631Z,100899.47
2022-11-24T14:39:55.774Z,100904.16
2022-11-24T14:42:27.241Z,100906.09
2022-11-24T14:44:58.751Z,100910.66
2022-11-24T14:47:32.491Z,100908.13
2022-11-24T14:50:10.654Z,100904.91
2022-11-24T14:52:45.809Z,100906.13
2022-11-24T14:55:27.203Z,100907.16
2022-11-24T14:57:55.249Z,100913.69
2022-11-24T15:00:29.121Z,100914.78
2022-11-24T15:03:16.032Z,100920.22
2022-11-24T15:05:55.761Z,100924.09
2022-11-24T15:08:25.469Z,100925.47
2022-11-24T15:10:59.809Z,100923.16
2022-11-24T15:13:28.493Z,100925.97
2022-11-24T15:16:02.528Z,100931.47
2022-11-24T15:18:38.968Z,100919.00
2022-11-24T15:21:07.568Z,100924.25
2022-11-24T15:23:36.895Z,100925.44
2022-11-24T15:26:31.303Z,100932.59
2022-11-24T15:29:01.194Z,100928.44
2022-11-24T15:31:29.365Z,100934.44
2022-11-24T15:33:58.820Z,100936.63
2022-11-24T15:36:26.976Z,100934.13
2022-11-24T15:38:55.020Z,100936.00
2022-11-24T15:41:25.882Z,100935.41
2022-11-24T15:43:58.996Z,100943.94
2022-11-24T15:46:28.133Z,100941.47
2022-11-24T15:48:58.071Z,100948.03
2022-11-24T15:51:27.889Z,100952.66
2022-11-24T15:54:01.041Z,100949.38
2022-11-24T15:56:33.075Z,100953.00
2022-11-24T15:59:01.203Z,100951.84
2022-11-24T16:01:32.350Z,100966.00
2022-11-24T16:04:02.192Z,100960.06
2022-11-24T16:06:30.439Z,100965.38
2022-11-24T16:08:59.210Z,100961.84
2022-11-24T16:11:27.925Z,100953.47
2022-11-24T16:13:56.057Z,100957.16
2022-11-24T16:16:25.730Z,100957.25
2022-11-24T16:18:53.981Z,100954.16
2022-11-24T16:21:23.442Z,100954.22
2022-11-24T16:23:51.890Z,100954.22
2022-11-24T16:26:19.880Z,100959.75
2022-11-24T16:28:47.977Z,100956.31
2022-11-24T16:31:18.014Z,100953.53
2022-11-24T16:33:46.972Z,100946.84
2022-11-24T16:36:15.569Z,100951.06
2022-11-24T16:38:45.046Z,100949.69
2022-11-24T16:41:13.207Z,100945.28
2022-11-24T16:43:41.452Z,100951.28
2022-11-24T16:46:21.169Z,100946.53
2022-11-24T16:48:50.954Z,100950.97
2022-11-24T16:51:20.457Z,100948.28
2022-11-24T16:53:50.233Z,100945.81
2022-11-24T16:56:18.597Z,100948.72
2022-11-24T16:58:46.595Z,100951.97
2022-11-24T17:01:15.852Z,100953.81
2022-11-24T17:03:44.068Z,100953.94
2022-11-24T17:06:15.844Z,100959.31
2022-11-24T17:08:45.228Z,100955.81
2022-11-24T17:11:16.419Z,100959.47
2022-11-24T17:13:45.691Z,100951.72
2022-11-24T17:16:14.979Z,100951.91
2022-11-24T17:18:43.896Z,100955.47
2022-11-24T17:21:15.709Z,100948.75
2022-11-24T17:23:44.337Z,100949.63
2022-11-24T17:26:15.222Z,100947.34
2022-11-24T17:28:44.155Z,100943.19
2022-11-24T17:31:18.884Z,100941.72
2022-11-24T17:33:46.973Z,100940.00
2022-11-24T17:36:15.012Z,100943.53
2022-11-24T17:38:43.131Z,100948.09
2022-11-24T17:41:11.373Z,100949.91
2022-11-24T17:43:41.244Z,100953.38
2022-11-24T17:46:11.559Z,100959.59
2022-11-24T17:48:39.772Z,100954.44
2022-11-24T17:51:10.699Z,100962.28
2022-11-24T17:53:39.246Z,100958.72
2022-11-24T17:56:08.201Z,100958.59
2022-11-24T17:58:42.526Z,100965.72
2022-11-24T18:01:13.103Z,100963.03
2022-11-24T18:03:42.068Z,100969.91
2022-11-24T18:06:12.034Z,100976.81
2022-11-24T18:08:41.799Z,100980.28
2022-11-24T18:11:12.357Z,100972.50
2022-11-24T18:14:00.346Z,100979.13
2022-11-24T18:16:34.509Z,100974.84
2022-11-24T18:19:08.855Z,100969.81
2022-11-24T18:21:38.838Z,100973.34
2022-11-24T18:24:07.541Z,100975.78
2022-11-24T18:26:35.578Z,100969.75
2022-11-24T18:29:03.785Z,100968.13
2022-11-24T18:31:35.398Z,100969.75
2022-11-24T18:34:05.263Z,100967.94
2022-11-24T18:36:36.360Z,100960.34
2022-11-24T18:39:05.993Z,100961.22
2022-11-24T18:41:34.759Z,100968.13
2022-11-24T18:44:07.676Z,100964.53
2022-11-24T18:46:38.173Z,100974.06
2022-11-24T18:49:07.210Z,100964.59
2022-11-24T18:51:35.677Z,100961.97
2022-11-24T18:54:05.344Z,100962.84
2022-11-24T18:56:33.584Z,100965.16
2022-11-24T18:59:01.687Z,100963.47
2022-11-24T19:01:30.459Z,100960.28
2022-11-24T19:04:02.924Z,100956.56
2022-11-24T19:06:33.138Z,100966.06
2022-11-24T19:09:03.420Z,100961.84
2022-11-24T19:11:33.911Z,100959.38
2022-11-24T19:14:02.930Z,100962.56
2022-11-24T19:16:31.239Z,100954.22
2022-11-24T19:19:02.656Z,100951.44
2022-11-24T19:21:32.742Z,100953.50
2022-11-24T19:24:04.847Z,100952.91
2022-11-24T19:26:34.875Z,100955.50
2022-11-24T19:29:03.257Z,100954.88
2022-11-24T19:31:34.651Z,100953.09
2022-11-24T19:34:08.074Z,100948.22
2022-11-24T19:36:36.931Z,100949.22
2022-11-24T19:39:05.647Z,100949.06
2022-11-24T19:41:34.516Z,100948.09
2022-11-24T19:44:02.802Z,100948.41
2022-11-24T19:46:31.051Z,100934.09
2022-11-24T19:49:01.165Z,100939.94
2022-11-24T19:51:32.646Z,100938.53
2022-11-24T19:54:04.836Z,100932.25
2022-11-24T19:56:35.082Z,100933.31
2022-11-24T19:59:04.149Z,100930.56
2022-11-24T20:01:34.473Z,100932.47
2022-11-24T20:04:04.380Z,100941.47
2022-11-24T20:06:36.838Z,100941.44
2022-11-24T20:09:07.303Z,100938.81
2022-11-24T20:11:35.450Z,100937.56
2022-11-24T20:14:03.801Z,100937.88
2022-11-24T20:16:33.722Z,100931.59
2022-11-24T20:19:05.715Z,100943.97
2022-11-24T20:21:36.999Z,100944.16
2022-11-24T20:24:07.347Z,100939.91
2022-11-24T20:26:37.724Z,100942.69
2022-11-24T20:29:07.454Z,100941.84
2022-11-24T20:31:37.783Z,100942.69
2022-11-24T20:34:07.968Z,100945.38
2022-11-24T20:36:40.605Z,100954.22
2022-11-24T20:39:09.708Z,100949.06
2022-11-24T20:41:39.293Z,100945.47
2022-11-24T20:44:10.638Z,100937.06
2022-11-24T20:46:40.697Z,100942.94
2022-11-24T20:49:10.286Z,100954.47
2022-11-24T20:51:43.807Z,100949.19
2022-11-24T20:54:14.074Z,100948.47
2022-11-24T20:56:46.394Z,100953.69
2022-11-24T20:59:15.916Z,100946.72
2022-11-24T21:01:47.365Z,100946.84
2022-11-24T21:04:18.041Z,100953.63
2022-11-24T21:06:47.850Z,100955.47
2022-11-24T21:09:16.420Z,100952.06
2022-11-24T21:11:44.764Z,100951.22
2022-11-24T21:14:13.269Z,100953.63
2022-11-24T21:16:42.723Z,100958.72
2022-11-24T21:19:13.346Z,100954.22
2022-11-24T21:21:42.768Z,100949.69
2022-11-24T21:24:14.839Z,100944.09
2022-11-24T21:26:44.371Z,100942.28
2022-11-24T21:29:14.195Z,100941.56
2022-11-24T21:31:42.722Z,100942.19
2022-11-24T21:34:15.382Z,100936.00
2022-11-24T21:36:45.091Z,100940.16
2022-11-24T21:39:15.901Z,100934.53
2022-11-24T21:41:46.259Z,100935.28
2022-11-24T21:44:15.292Z,100937.13
2022-11-24T21:46:49.614Z,100940.59
2022-11-24T21:49:22.405Z,100931.19
2022-11-24T21:51:55.224Z,100921.66
2022-11-24T21:54:25.197Z,100920.59
2022-11-24T21:56:55.477Z,100917.00
2022-11-24T21:59:23.955Z,100918.06
2022-11-24T22:01:52.059Z,100916.00
2022-11-24T22:04:20.379Z,100904.81
2022-11-24T22:06:48.493Z,100901.31
2022-11-24T22:09:18.424Z,100900.34
2022-11-24T22:11:49.679Z,100895.25
2022-11-24T22:14:17.868Z,100893.75
2022-11-24T22:16:46.242Z,100893.84
2022-11-24T22:19:14.468Z,100884.69
2022-11-24T22:21:42.593Z,100887.47
2022-11-24T22:24:10.861Z,100885.78
2022-11-24T22:26:38.906Z,100895.88
2022-11-24T22:29:08.593Z,100887.16
2022-11-24T22:31:36.667Z,100888.03
2022-11-24T22:34:04.927Z,100878.31
2022-11-24T22:36:33.073Z,100887.31
2022-11-24T22:39:03.416Z,100885.41
2022-11-24T22:41:32.681Z,100884.84
2022-11-24T22:44:00.887Z,100874.09
2022-11-24T22:46:32.104Z,100872.47
2022-11-24T22:49:01.452Z,100878.56
2022-11-24T22:51:31.327Z,100870.56
2022-11-24T22:54:01.055Z,100865.34
2022-11-24T22:56:32.114Z,100864.56
2022-11-24T22:59:00.897Z,100867.94
2022-11-24T23:01:31.474Z,100860.03
2022-11-24T23:03:59.704Z,100857.56
2022-11-24T23:06:29.365Z,100861.19
2022-11-24T23:08:58.709Z,100866.97
2022-11-24T23:11:34.964Z,100868.72
2022-11-24T23:14:07.545Z,100868.50
2022-11-24T23:16:37.043Z,100864.25
2022-11-24T23:19:05.423Z,100864.25
2022-11-24T23:21:35.394Z,100856.22
2022-11-24T23:24:04.955Z,100852.38
2022-11-24T23:26:34.803Z,100867.19
2022-11-24T23:29:03.517Z,100856.88
2022-11-24T23:31:31.680Z,100854.00
2022-11-24T23:34:03.165Z,100849.66
2022-11-24T23:36:32.634Z,100859.97
2022-11-24T23:39:03.821Z,100852.44
2022-11-24T23:41:32.585Z,100855.66
2022-11-24T23:44:00.724Z,100848.75
2022-11-24T23:46:29.423Z,100859.22
2022-11-24T23:48:58.287Z,100844.06
2022-11-24T23:51:29.550Z,100849.50
2022-11-24T23:53:58.270Z,100848.34
2022-11-24T23:56:27.998Z,100850.88
2022-11-24T23:58:56.139Z,100847.34
